Time;durP1;ratioP1;P1;durP2;ratioP2;P2;SDS_P1;SDS_P2;PMS_P1;PMS_P2;Temp;Humidity;BMP_temperature;BMP_pressure;BME280_temperature;BME280_humidity;BME280_pressure;Samples;Min_cycle;Max_cycle;Signal;HPM_P1;HPM_P2
2022/03/27 00:01:32;;;;;;;43.83;20.88;;;12.00;96.50;;;;;;5049736;28;20104;-73
2022/03/27 00:03:58;;;;;;;25.10;19.48;;;12.00;96.90;;;;;;5050611;28;20029;-70
2022/03/27 00:06:24;;;;;;;28.63;22.23;;;12.00;96.40;;;;;;5051144;28;20048;-71
2022/03/27 00:08:50;;;;;;;31.70;20.55;;;11.90;96.60;;;;;;5044230;28;20065;-71
2022/03/27 00:11:24;;;;;;;27.30;20.98;;;11.90;96.50;;;;;;5051192;28;20025;-71
2022/03/27 00:13:54;;;;;;;27.35;22.27;;;11.80;96.70;;;;;;5050902;28;20037;-71
2022/03/27 00:16:21;;;;;;;29.88;23.33;;;11.80;96.90;;;;;;5050473;28;20021;-71
2022/03/27 00:18:47;;;;;;;27.65;21.48;;;11.80;97.20;;;;;;5046313;28;20024;-70
2022/03/27 00:21:13;;;;;;;28.75;20.55;;;11.70;97.80;;;;;;5044454;28;20558;-71
2022/03/27 00:23:40;;;;;;;32.40;20.90;;;11.50;97.90;;;;;;5051379;28;20108;-71
2022/03/27 00:26:06;;;;;;;25.05;21.90;;;11.40;98.20;;;;;;5050006;28;20025;-70
2022/03/27 00:28:33;;;;;;;25.85;20.60;;;11.20;98.30;;;;;;5050551;28;20024;-70
2022/03/27 00:31:06;;;;;;;24.25;21.05;;;11.20;98.20;;;;;;5045377;28;20136;-70
2022/03/27 00:33:33;;;;;;;26.90;20.88;;;11.20;98.30;;;;;;5052996;28;20048;-70
2022/03/27 00:36:00;;;;;;;24.38;19.85;;;11.40;98.10;;;;;;5052825;28;20028;-70
2022/03/27 00:38:26;;;;;;;24.25;20.33;;;11.40;97.50;;;;;;5048671;28;20044;-70
2022/03/27 00:40:53;;;;;;;29.75;19.73;;;11.50;97.10;;;;;;5048574;28;20055;-70
2022/03/27 00:43:20;;;;;;;25.40;18.30;;;11.60;97.10;;;;;;5046563;28;20110;-71
2022/03/27 00:45:47;;;;;;;25.40;19.38;;;11.60;97.10;;;;;;5047521;28;20025;-70
2022/03/27 00:48:19;;;;;;;27.90;20.48;;;11.60;97.00;;;;;;5044368;28;20497;-72
2022/03/27 00:50:47;;;;;;;24.15;19.83;;;11.50;97.10;;;;;;5046228;28;20033;-71
2022/03/27 00:53:13;;;;;;;28.38;20.40;;;11.50;97.30;;;;;;5051689;28;20036;-70
2022/03/27 00:55:39;;;;;;;24.30;20.27;;;11.50;97.20;;;;;;5055605;28;20017;-71
2022/03/27 00:58:05;;;;;;;26.73;21.27;;;11.30;97.90;;;;;;5047770;28;20036;-70
2022/03/27 01:00:46;;;;;;;28.83;20.10;;;11.20;98.90;;;;;;5051270;28;20398;-70
2022/03/27 01:03:21;;;;;;;28.80;22.65;;;11.00;99.40;;;;;;5067192;28;20047;-70
2022/03/27 01:05:50;;;;;;;27.50;20.98;;;10.80;99.80;;;;;;5050445;28;20074;-69
2022/03/27 01:09:35;;;;;;;26.65;20.90;;;10.60;99.90;;;;;;5053440;28;20065;-71
2022/03/27 01:11:17;;;;;;;30.17;21.38;;;10.50;99.90;;;;;;5049357;28;20029;-71
2022/03/27 01:13:53;;;;;;;22.48;19.60;;;10.40;99.90;;;;;;5054717;28;20021;-72
2022/03/27 01:16:44;;;;;;;28.38;21.52;;;10.50;99.80;;;;;;5051783;28;20048;-69
2022/03/27 01:19:13;;;;;;;29.05;21.65;;;10.50;99.90;;;;;;5049839;28;20032;-71
2022/03/27 01:21:41;;;;;;;25.02;21.10;;;10.40;99.90;;;;;;5048982;28;20482;-69
2022/03/27 01:24:09;;;;;;;25.92;22.30;;;10.40;99.90;;;;;;5050937;28;20450;-72
2022/03/27 01:26:36;;;;;;;28.08;22.30;;;10.30;99.90;;;;;;5049435;28;20104;-71
2022/03/27 01:29:03;;;;;;;28.15;21.58;;;10.30;99.90;;;;;;5049693;28;20033;-70
2022/03/27 01:31:29;;;;;;;24.13;19.52;;;10.30;99.90;;;;;;5052556;28;20055;-71
2022/03/27 01:33:54;;;;;;;26.23;20.17;;;10.20;99.90;;;;;;5053879;28;20028;-70
2022/03/27 01:36:36;;;;;;;25.77;19.58;;;10.10;99.90;;;;;;5048410;28;20406;-71
2022/03/27 01:39:08;;;;;;;25.50;19.67;;;10.20;99.80;;;;;;5050390;28;20382;-70
2022/03/27 01:41:34;;;;;;;21.55;18.85;;;10.50;99.50;;;;;;5049745;28;20060;-70
2022/03/27 01:44:00;;;;;;;22.00;17.13;;;10.50;98.90;;;;;;5049856;28;20401;-69
2022/03/27 01:46:34;;;;;;;24.48;18.58;;;10.50;99.00;;;;;;5046823;28;20374;-70
2022/03/27 01:49:04;;;;;;;23.27;17.50;;;10.70;98.70;;;;;;5045420;28;20033;-69
2022/03/27 01:51:31;;;;;;;23.10;18.83;;;10.80;98.40;;;;;;5045896;28;20029;-69
2022/03/27 01:53:58;;;;;;;26.23;19.10;;;10.80;98.20;;;;;;5045829;28;20093;-72
2022/03/27 01:56:24;;;;;;;22.10;16.33;;;10.70;98.20;;;;;;5051820;28;20025;-70
2022/03/27 01:58:50;;;;;;;25.35;18.50;;;10.70;98.30;;;;;;5051253;28;20025;-70
2022/03/27 02:01:16;;;;;;;23.60;18.17;;;10.60;98.70;;;;;;5045880;28;20379;-71
2022/03/27 02:03:43;;;;;;;22.73;19.35;;;10.50;99.00;;;;;;5049898;28;20039;-69
2022/03/27 02:06:09;;;;;;;23.88;19.40;;;10.30;99.30;;;;;;5052777;28;20040;-69
2022/03/27 02:08:35;;;;;;;25.02;19.27;;;10.20;99.50;;;;;;5053720;28;20032;-70
2022/03/27 02:11:02;;;;;;;20.67;17.92;;;10.10;99.70;;;;;;5053098;28;20079;-70
2022/03/27 02:13:29;;;;;;;25.23;18.20;;;10.10;99.90;;;;;;5051170;28;20029;-69
2022/03/27 02:15:57;;;;;;;22.58;18.23;;;10.10;99.90;;;;;;5051492;28;20025;-69
2022/03/27 02:18:28;;;;;;;24.00;18.60;;;10.00;99.90;;;;;;5052128;28;20025;-71
2022/03/27 02:20:54;;;;;;;18.92;16.05;;;9.90;99.90;;;;;;5044924;28;20117;-71
2022/03/27 02:23:21;;;;;;;20.70;18.58;;;9.90;99.90;;;;;;5040541;28;20020;-69
2022/03/27 02:25:47;;;;;;;25.73;18.35;;;9.90;99.90;;;;;;5047863;28;20033;-71
2022/03/27 02:28:13;;;;;;;24.98;18.35;;;9.80;99.90;;;;;;5047381;28;20138;-71
2022/03/27 02:30:39;;;;;;;22.88;15.93;;;9.70;99.90;;;;;;5050109;28;20403;-71
2022/03/27 02:33:04;;;;;;;21.40;18.00;;;9.70;99.90;;;;;;5055689;28;20033;-70
2022/03/27 02:35:30;;;;;;;22.15;19.63;;;9.70;99.90;;;;;;5057489;28;20116;-72
2022/03/27 02:37:56;;;;;;;22.25;19.63;;;9.60;99.90;;;;;;5059842;28;20079;-71
2022/03/27 02:40:22;;;;;;;24.40;18.92;;;9.60;99.90;;;;;;5068046;28;20025;-74
2022/03/27 02:42:48;;;;;;;20.90;18.63;;;9.60;99.90;;;;;;5067610;28;20073;-71
2022/03/27 02:45:14;;;;;;;28.10;18.60;;;9.50;99.90;;;;;;5050064;28;20026;-70
2022/03/27 02:48:23;;;;;;;21.23;18.13;;;9.40;99.90;;;;;;5053250;28;20032;-71
2022/03/27 02:50:55;;;;;;;26.88;18.70;;;9.40;99.90;;;;;;5049895;28;20021;-71
2022/03/27 02:53:24;;;;;;;23.67;19.75;;;9.40;99.90;;;;;;5052491;28;20509;-71
2022/03/27 02:55:50;;;;;;;27.58;20.17;;;9.30;99.90;;;;;;5046470;28;20029;-70
2022/03/27 02:58:30;;;;;;;23.88;18.20;;;9.40;99.90;;;;;;5049040;28;20029;-71
2022/03/27 03:00:56;;;;;;;24.45;18.77;;;9.50;99.90;;;;;;5053295;28;20564;-72
2022/03/27 03:03:23;;;;;;;24.23;19.58;;;9.40;99.90;;;;;;5049011;28;20033;-68
2022/03/27 03:05:49;;;;;;;22.80;19.88;;;9.40;99.90;;;;;;5047856;28;20074;-72
2022/03/27 03:08:17;;;;;;;28.38;19.85;;;9.30;99.90;;;;;;5054582;28;20040;-69
2022/03/27 03:10:43;;;;;;;24.67;19.00;;;9.40;99.90;;;;;;5050860;28;20483;-73
2022/03/27 03:13:10;;;;;;;28.20;19.30;;;9.60;99.90;;;;;;5053955;28;20028;-70
2022/03/27 03:15:44;;;;;;;28.83;20.02;;;9.70;99.90;;;;;;5051982;28;20479;-70
2022/03/27 03:18:10;;;;;;;25.73;19.30;;;9.70;99.90;;;;;;5049927;28;20021;-71
2022/03/27 03:20:38;;;;;;;28.55;19.35;;;9.80;99.90;;;;;;5053030;28;20460;-71
2022/03/27 03:23:03;;;;;;;21.73;18.38;;;9.90;99.90;;;;;;5053766;28;20021;-71
2022/03/27 03:25:30;;;;;;;22.27;17.58;;;9.90;99.90;;;;;;5047826;28;20037;-69
2022/03/27 03:27:56;;;;;;;21.70;17.48;;;9.80;99.90;;;;;;5046246;28;20095;-70
2022/03/27 03:30:23;;;;;;;19.67;16.13;;;9.70;99.90;;;;;;5045904;28;20490;-72
2022/03/27 03:32:49;;;;;;;24.63;17.77;;;9.60;99.90;;;;;;5044920;28;20065;-70
2022/03/27 03:35:15;;;;;;;25.38;17.63;;;9.60;99.90;;;;;;5048070;28;20109;-71
2022/03/27 03:37:41;;;;;;;26.88;18.45;;;9.60;99.90;;;;;;5048644;28;20027;-70
2022/03/27 03:40:08;;;;;;;23.35;17.73;;;9.50;99.90;;;;;;5050630;28;20025;-75
2022/03/27 03:42:34;;;;;;;25.65;17.60;;;9.50;99.90;;;;;;5050850;28;20021;-69
2022/03/27 03:45:01;;;;;;;29.23;17.15;;;9.60;99.90;;;;;;5054800;28;20081;-69
2022/03/27 03:47:27;;;;;;;23.52;16.58;;;9.60;99.90;;;;;;5050622;28;20379;-69
2022/03/27 03:49:54;;;;;;;22.20;16.90;;;9.60;99.90;;;;;;5052979;28;20040;-72
2022/03/27 03:52:21;;;;;;;26.33;18.30;;;9.50;99.90;;;;;;5052644;28;20518;-69
2022/03/27 03:54:47;;;;;;;20.08;17.20;;;9.40;99.90;;;;;;5051887;28;20369;-72
2022/03/27 03:58:11;;;;;;;33.17;18.95;;;9.40;99.90;;;;;;5051802;28;20021;-71
2022/03/27 04:00:37;;;;;;;24.75;18.23;;;9.50;99.90;;;;;;5033484;28;20447;-70
2022/03/27 04:03:02;;;;;;;22.40;18.30;;;9.40;99.90;;;;;;5052143;28;20067;-71
2022/03/27 04:05:28;;;;;;;27.75;17.17;;;9.40;99.90;;;;;;5051313;28;20539;-72
2022/03/27 04:07:54;;;;;;;26.08;20.23;;;9.30;99.90;;;;;;5051832;28;20025;-70
2022/03/27 04:10:20;;;;;;;24.27;16.98;;;9.30;99.90;;;;;;5053461;28;20033;-70
2022/03/27 04:12:46;;;;;;;19.77;16.38;;;9.40;99.90;;;;;;5053518;28;20029;-72
2022/03/27 04:15:12;;;;;;;25.90;17.33;;;9.40;99.90;;;;;;5051177;28;20033;-70
2022/03/27 04:17:45;;;;;;;22.85;16.50;;;9.40;99.90;;;;;;5050199;28;20025;-70
2022/03/27 04:20:12;;;;;;;30.40;18.52;;;9.40;99.90;;;;;;5051720;28;20033;-71
2022/03/27 04:22:41;;;;;;;18.83;15.98;;;9.30;99.90;;;;;;5056273;28;20025;-70
2022/03/27 04:25:08;;;;;;;19.75;15.38;;;9.30;99.90;;;;;;5049756;28;20086;-70
2022/03/27 04:27:34;;;;;;;23.75;17.65;;;9.30;99.90;;;;;;5050646;28;20550;-70
2022/03/27 04:30:03;;;;;;;19.50;16.27;;;9.20;99.90;;;;;;5051773;28;20021;-69
2022/03/27 04:32:29;;;;;;;24.58;17.42;;;9.30;99.90;;;;;;5051942;28;20017;-70
2022/03/27 04:34:55;;;;;;;27.20;17.10;;;9.30;99.90;;;;;;5050322;28;20372;-72
2022/03/27 04:37:21;;;;;;;25.05;18.70;;;9.30;99.90;;;;;;5051737;28;20082;-71
2022/03/27 04:39:47;;;;;;;25.17;18.75;;;9.20;99.90;;;;;;5052362;28;20021;-70
2022/03/27 04:42:13;;;;;;;22.73;16.90;;;9.30;99.90;;;;;;5052064;28;20096;-69
2022/03/27 04:44:39;;;;;;;30.33;17.38;;;9.30;99.90;;;;;;5050493;28;20037;-70
2022/03/27 04:47:08;;;;;;;27.70;17.60;;;9.20;99.90;;;;;;5046284;28;20586;-70
2022/03/27 04:49:34;;;;;;;20.15;17.75;;;9.30;99.90;;;;;;5043958;28;20044;-72
2022/03/27 04:52:00;;;;;;;26.02;18.10;;;9.30;99.90;;;;;;5046696;28;20151;-69
2022/03/27 04:54:25;;;;;;;32.17;17.60;;;9.20;99.90;;;;;;5049093;28;20272;-70
2022/03/27 04:56:51;;;;;;;27.63;18.60;;;9.20;99.90;;;;;;5048943;28;20108;-71
2022/03/27 04:59:17;;;;;;;24.75;17.20;;;9.20;99.90;;;;;;5050039;28;20024;-71
2022/03/27 05:01:43;;;;;;;22.45;16.90;;;9.20;99.90;;;;;;5043617;28;20029;-71
2022/03/27 05:04:09;;;;;;;32.65;19.20;;;9.10;99.90;;;;;;5048883;28;20184;-72
2022/03/27 05:06:35;;;;;;;20.80;16.38;;;9.20;99.90;;;;;;5049665;28;20036;-72
2022/03/27 05:09:01;;;;;;;23.60;17.50;;;9.20;99.90;;;;;;5050750;28;20021;-71
2022/03/27 05:11:30;;;;;;;23.50;18.00;;;9.20;99.90;;;;;;5050249;28;20029;-69
2022/03/27 05:13:56;;;;;;;25.33;17.80;;;9.20;99.90;;;;;;5053472;28;20128;-70
2022/03/27 05:16:23;;;;;;;24.00;16.40;;;9.20;99.90;;;;;;5046041;28;20044;-74
2022/03/27 05:18:48;;;;;;;19.48;17.13;;;9.10;99.90;;;;;;5049580;28;20028;-70
2022/03/27 05:21:15;;;;;;;21.95;17.35;;;9.10;99.90;;;;;;5049626;28;20458;-70
2022/03/27 05:23:42;;;;;;;26.08;18.27;;;9.10;99.90;;;;;;5052650;28;20025;-70
2022/03/27 05:26:08;;;;;;;21.42;17.52;;;9.20;99.90;;;;;;5049497;28;20116;-71
2022/03/27 05:28:34;;;;;;;21.23;16.17;;;9.20;99.90;;;;;;5049849;28;20482;-72
2022/03/27 05:31:02;;;;;;;24.85;18.67;;;9.30;99.90;;;;;;5055892;28;20043;-70
2022/03/27 05:33:28;;;;;;;25.58;17.92;;;9.30;99.90;;;;;;5054660;28;20032;-69
2022/03/27 05:35:54;;;;;;;22.50;17.90;;;9.40;99.90;;;;;;5053291;28;20041;-72
2022/03/27 05:38:20;;;;;;;28.35;17.10;;;9.40;99.90;;;;;;5050302;28;20051;-71
2022/03/27 05:40:47;;;;;;;25.63;18.02;;;9.40;99.90;;;;;;5049969;28;20495;-71
2022/03/27 05:43:13;;;;;;;26.88;18.60;;;9.40;99.90;;;;;;5052003;28;20183;-70
2022/03/27 05:45:39;;;;;;;23.70;17.83;;;9.40;99.90;;;;;;5052197;28;20049;-71
2022/03/27 05:48:06;;;;;;;25.15;19.40;;;9.50;99.90;;;;;;5052529;28;20437;-70
2022/03/27 05:50:32;;;;;;;24.73;18.58;;;9.50;99.90;;;;;;5047481;28;20025;-70
2022/03/27 05:52:57;;;;;;;27.30;20.25;;;9.60;99.90;;;;;;5044935;28;20021;-70
2022/03/27 05:55:25;;;;;;;25.00;19.35;;;9.70;99.90;;;;;;5052222;28;20055;-72
2022/03/27 05:57:51;;;;;;;27.40;20.58;;;9.80;99.90;;;;;;5053081;28;20032;-72
2022/03/27 06:00:20;;;;;;;25.92;19.98;;;9.90;99.90;;;;;;5059838;28;20024;-70
2022/03/27 06:02:47;;;;;;;31.80;20.00;;;10.00;99.90;;;;;;5043537;28;20036;-70
2022/03/27 06:05:13;;;;;;;28.65;19.67;;;10.00;99.90;;;;;;5046469;28;20021;-70
2022/03/27 06:07:49;;;;;;;29.95;19.27;;;10.10;99.90;;;;;;5047547;28;20136;-70
2022/03/27 06:10:19;;;;;;;23.83;18.48;;;10.10;99.90;;;;;;5050835;28;20075;-70
2022/03/27 06:12:45;;;;;;;23.58;18.63;;;10.10;99.90;;;;;;5052355;28;20027;-71
2022/03/27 06:15:12;;;;;;;23.02;17.95;;;10.10;99.90;;;;;;5053158;28;20021;-71
2022/03/27 06:17:46;;;;;;;20.95;17.48;;;10.20;99.90;;;;;;5051915;28;20371;-70
2022/03/27 06:20:14;;;;;;;24.17;17.60;;;10.30;99.90;;;;;;5053795;28;20035;-72
2022/03/27 06:22:40;;;;;;;27.02;19.20;;;10.40;99.90;;;;;;5062003;28;20040;-72
2022/03/27 06:25:08;;;;;;;20.63;16.65;;;10.50;99.70;;;;;;5065632;28;20025;-71
2022/03/27 06:27:34;;;;;;;23.20;16.83;;;10.60;99.00;;;;;;5053715;28;20025;-70
2022/03/27 06:30:00;;;;;;;22.33;15.82;;;10.80;99.00;;;;;;5059165;28;20401;-73
2022/03/27 06:32:28;;;;;;;27.50;17.75;;;10.90;98.50;;;;;;5053498;28;20028;-73
2022/03/27 06:34:57;;;;;;;28.58;15.30;;;11.10;98.30;;;;;;5057261;28;20064;-70
2022/03/27 06:37:27;;;;;;;22.00;16.90;;;11.20;97.90;;;;;;5061329;28;20021;-70
2022/03/27 06:39:54;;;;;;;22.17;15.00;;;11.20;97.60;;;;;;5066399;28;20018;-69
2022/03/27 06:42:22;;;;;;;21.17;16.92;;;11.30;97.60;;;;;;5068505;28;20035;-70
2022/03/27 06:44:48;;;;;;;19.95;15.52;;;11.50;97.40;;;;;;5066887;28;20135;-70
2022/03/27 06:47:13;;;;;;;19.88;15.73;;;11.60;97.70;;;;;;5068346;28;20052;-71
2022/03/27 06:49:40;;;;;;;20.52;16.15;;;11.70;97.90;;;;;;5056417;28;20033;-69
2022/03/27 06:52:06;;;;;;;19.63;15.73;;;11.70;98.00;;;;;;5061808;28;20021;-69
2022/03/27 06:54:33;;;;;;;23.02;17.90;;;11.80;97.80;;;;;;5062460;28;20024;-71
2022/03/27 06:56:59;;;;;;;18.17;15.90;;;11.90;97.50;;;;;;5052944;28;20056;-71
2022/03/27 07:03:01;;;;;;;22.85;17.52;;;12.00;97.30;;;;;;5058900;28;20048;-71
2022/03/27 07:04:58;;;;;;;21.38;16.73;;;12.30;97.50;;;;;;5048846;28;20118;-71
2022/03/27 07:07:24;;;;;;;21.58;16.92;;;12.40;97.40;;;;;;5050889;28;20417;-71
2022/03/27 07:09:50;;;;;;;22.75;18.38;;;12.60;97.10;;;;;;5054039;28;20572;-72
2022/03/27 07:12:15;;;;;;;22.45;18.75;;;12.70;96.80;;;;;;5067414;28;20032;-72
2022/03/27 07:14:41;;;;;;;22.83;18.55;;;12.80;96.70;;;;;;5060979;28;20029;-70
2022/03/27 07:17:07;;;;;;;22.10;18.27;;;12.90;96.10;;;;;;5071760;28;20017;-71
2022/03/27 07:19:34;;;;;;;20.60;16.58;;;13.10;95.80;;;;;;5069486;28;20033;-72
2022/03/27 07:22:14;;;;;;;22.40;17.13;;;13.20;95.80;;;;;;5054731;28;20029;-72
2022/03/27 07:24:41;;;;;;;19.58;17.30;;;13.30;96.30;;;;;;5057992;28;20029;-70
2022/03/27 07:27:08;;;;;;;25.67;17.92;;;13.50;96.70;;;;;;5056998;28;20430;-70
2022/03/27 07:29:37;;;;;;;29.60;20.50;;;13.60;96.70;;;;;;5036682;28;20018;-63
2022/03/27 07:32:07;;;;;;;29.70;20.13;;;13.80;96.60;;;;;;5047036;28;20044;-65
2022/03/27 07:34:33;;;;;;;23.25;19.67;;;14.00;96.50;;;;;;5051406;28;20052;-63
2022/03/27 07:36:59;;;;;;;32.58;21.25;;;14.10;97.10;;;;;;5056081;28;20025;-64
2022/03/27 07:39:25;;;;;;;31.00;23.88;;;14.10;97.90;;;;;;5055056;28;20025;-63
2022/03/27 07:41:51;;;;;;;23.92;20.40;;;14.20;96.00;;;;;;5059370;28;20025;-62
2022/03/27 07:44:17;;;;;;;25.77;21.67;;;14.10;94.60;;;;;;5058377;28;20036;-64
2022/03/27 07:46:44;;;;;;;28.88;23.55;;;14.10;95.30;;;;;;5060148;28;20028;-64
2022/03/27 07:49:10;;;;;;;29.70;22.52;;;14.10;96.50;;;;;;5055898;28;20394;-64
2022/03/27 07:51:36;;;;;;;31.08;24.45;;;14.10;98.90;;;;;;5053985;28;20121;-66
2022/03/27 07:54:03;;;;;;;35.45;24.50;;;14.10;98.20;;;;;;5045606;28;20025;-65
2022/03/27 07:56:32;;;;;;;33.17;24.98;;;14.10;98.50;;;;;;5050525;28;20072;-65
2022/03/27 07:58:57;;;;;;;30.38;22.88;;;14.10;99.60;;;;;;5041543;28;20045;-64
2022/03/27 08:01:24;;;;;;;31.98;26.20;;;14.10;99.10;;;;;;5044824;28;20276;-66
2022/03/27 08:03:50;;;;;;;31.42;24.08;;;14.10;99.00;;;;;;5048951;28;20495;-66
2022/03/27 08:06:16;;;;;;;30.95;24.55;;;14.10;99.40;;;;;;5050677;28;20094;-65
2022/03/27 08:08:42;;;;;;;32.72;26.63;;;14.30;99.20;;;;;;5054531;28;20096;-65
2022/03/27 08:11:09;;;;;;;28.83;25.50;;;14.20;99.00;;;;;;5054720;28;20446;-63
2022/03/27 08:13:35;;;;;;;30.83;24.55;;;14.30;99.10;;;;;;5052686;28;20029;-63
2022/03/27 08:16:01;;;;;;;34.47;26.30;;;14.40;99.40;;;;;;5046681;28;20142;-63
2022/03/27 08:18:27;;;;;;;33.95;26.88;;;14.30;98.70;;;;;;5052738;28;20166;-62
2022/03/27 08:20:53;;;;;;;33.30;25.42;;;14.30;98.70;;;;;;5050417;28;20490;-63
2022/03/27 08:23:19;;;;;;;34.47;24.52;;;14.30;99.10;;;;;;5050343;28;20033;-65
2022/03/27 08:28:29;;;;;;;24.80;21.48;;;14.50;96.40;;;;;;5047300;28;20084;-65
2022/03/27 08:30:55;;;;;;;28.48;22.92;;;14.50;96.80;;;;;;5038702;28;20332;-64
2022/03/27 08:33:21;;;;;;;27.50;22.88;;;14.50;97.90;;;;;;5043448;28;20033;-64
2022/03/27 08:35:46;;;;;;;25.88;23.05;;;14.60;98.70;;;;;;5047983;28;20047;-64
2022/03/27 08:38:17;;;;;;;26.58;23.83;;;14.60;98.40;;;;;;5050000;28;20515;-65
2022/03/27 08:40:45;;;;;;;29.38;23.58;;;14.60;98.00;;;;;;5051978;28;20025;-63
2022/03/27 08:43:13;;;;;;;26.67;23.63;;;14.70;97.50;;;;;;5050786;28;20557;-64
2022/03/27 08:45:40;;;;;;;33.17;24.63;;;14.70;95.60;;;;;;5049450;28;20040;-64
2022/03/27 08:48:06;;;;;;;31.63;24.15;;;14.70;95.60;;;;;;5050812;28;20048;-64
2022/03/27 08:50:52;;;;;;;31.88;26.13;;;14.70;96.50;;;;;;5049344;28;20032;-63
2022/03/27 08:53:57;;;;;;;31.00;24.30;;;14.80;95.60;;;;;;5051351;28;20065;-65
2022/03/27 08:56:53;;;;;;;27.15;24.20;;;14.70;95.60;;;;;;5049448;28;20392;-62
2022/03/27 08:59:42;;;;;;;30.10;24.60;;;14.70;98.30;;;;;;5050157;28;20059;-63
2022/03/27 09:02:32;;;;;;;30.05;24.30;;;14.50;98.10;;;;;;5050402;28;20384;-65
2022/03/27 09:05:03;;;;;;;26.93;19.77;;;14.60;97.90;;;;;;5040762;28;20056;-65
2022/03/27 09:07:30;;;;;;;35.53;26.92;;;14.70;97.40;;;;;;5044906;28;20311;-64
2022/03/27 09:09:58;;;;;;;34.38;26.80;;;14.70;95.90;;;;;;5040904;28;20043;-65
2022/03/27 09:12:24;;;;;;;32.42;26.92;;;14.70;94.70;;;;;;5042681;28;20346;-65
2022/03/27 09:14:50;;;;;;;31.42;28.02;;;14.80;95.20;;;;;;5040182;28;20033;-64
2022/03/27 09:17:16;;;;;;;37.95;26.80;;;14.80;94.50;;;;;;5048945;28;20479;-64
2022/03/27 09:19:49;;;;;;;27.92;24.20;;;14.90;94.10;;;;;;5048454;28;20044;-64
2022/03/27 09:22:21;;;;;;;31.52;25.73;;;15.10;94.60;;;;;;5048383;28;20059;-66
2022/03/27 09:24:56;;;;;;;34.85;27.58;;;15.20;94.10;;;;;;5049034;28;20135;-64
2022/03/27 09:27:33;;;;;;;28.40;24.25;;;15.20;93.30;;;;;;5044820;28;20030;-66
2022/03/27 09:30:06;;;;;;;26.90;24.02;;;15.40;96.60;;;;;;5031487;28;20404;-64
2022/03/27 09:32:35;;;;;;;29.55;23.85;;;15.40;99.90;;;;;;5044512;28;20017;-64
2022/03/27 09:35:15;;;;;;;27.75;23.42;;;15.50;99.90;;;;;;5045306;28;20041;-66
2022/03/27 09:37:45;;;;;;;29.63;24.45;;;15.50;99.90;;;;;;5040174;28;20022;-66
2022/03/27 09:40:12;;;;;;;30.67;23.63;;;15.50;99.90;;;;;;5044532;28;20052;-64
2022/03/27 09:42:40;;;;;;;31.05;24.67;;;15.60;99.60;;;;;;5046400;28;20070;-64
2022/03/27 09:45:24;;;;;;;27.85;24.40;;;15.50;98.40;;;;;;5044273;28;20025;-65
2022/03/27 09:47:55;;;;;;;29.95;23.90;;;15.60;98.80;;;;;;5050880;28;20040;-65
2022/03/27 09:50:34;;;;;;;28.43;24.23;;;15.70;97.80;;;;;;5051446;28;21117;-64
2022/03/27 09:53:36;;;;;;;26.88;23.45;;;15.80;97.50;;;;;;5045504;28;20298;-65
2022/03/27 09:56:01;;;;;;;28.23;24.55;;;15.90;95.80;;;;;;5026402;28;20028;-65
2022/03/27 09:58:33;;;;;;;29.10;22.98;;;15.90;95.40;;;;;;5045624;28;20572;-64
2022/03/27 10:01:15;;;;;;;35.22;26.48;;;15.90;94.70;;;;;;5050136;28;20428;-63
2022/03/27 10:04:01;;;;;;;;;;;15.90;93.90;;;;;;5047906;28;20049;-64
2022/03/27 10:06:36;;;;;;;34.30;23.90;;;15.90;92.90;;;;;;5054869;28;19909;-65
2022/03/27 10:09:04;;;;;;;28.08;23.05;;;16.10;92.90;;;;;;5049516;28;20470;-64
2022/03/27 10:11:30;;;;;;;27.73;22.27;;;16.20;93.20;;;;;;5047467;28;20037;-66
2022/03/27 10:13:57;;;;;;;24.73;22.08;;;16.30;93.50;;;;;;5052963;28;20017;-65
2022/03/27 10:16:28;;;;;;;24.63;22.00;;;16.40;93.10;;;;;;5054767;28;20032;-64
2022/03/27 10:18:58;;;;;;;28.75;25.58;;;16.50;93.20;;;;;;5047462;28;20028;-64
2022/03/27 10:21:26;;;;;;;26.65;23.05;;;16.50;93.60;;;;;;5054411;28;20047;-66
2022/03/27 10:23:59;;;;;;;27.13;23.45;;;16.60;92.10;;;;;;5046327;28;20025;-64
2022/03/27 10:26:26;;;;;;;34.25;23.00;;;16.70;92.20;;;;;;5048063;28;20353;-64
2022/03/27 10:28:52;;;;;;;30.92;25.33;;;16.60;92.40;;;;;;5048261;28;20364;-64
2022/03/27 10:31:19;;;;;;;33.97;25.25;;;16.60;92.80;;;;;;5048832;28;20075;-64
2022/03/27 10:33:46;;;;;;;33.47;24.98;;;16.60;93.00;;;;;;5053052;28;20146;-63
2022/03/27 10:36:25;;;;;;;26.13;23.65;;;16.70;93.10;;;;;;5050684;28;20562;-65
2022/03/27 10:39:21;;;;;;;29.15;24.23;;;16.60;92.30;;;;;;5047241;28;20021;-65
2022/03/27 10:41:55;;;;;;;37.63;28.50;;;16.70;92.00;;;;;;5052281;28;20031;-65
2022/03/27 10:44:47;;;;;;;30.48;24.05;;;16.80;92.80;;;;;;5049507;28;20041;-65
2022/03/27 10:47:17;;;;;;;34.75;27.05;;;16.90;91.20;;;;;;5050473;28;20493;-65
2022/03/27 10:50:05;;;;;;;44.75;35.03;;;16.80;91.40;;;;;;5052203;28;20037;-64
2022/03/27 10:52:32;;;;;;;37.38;30.60;;;16.90;92.70;;;;;;5041124;28;20124;-64
2022/03/27 10:55:00;;;;;;;30.58;27.17;;;16.90;92.30;;;;;;5052511;28;20025;-65
2022/03/27 10:57:38;;;;;;;32.35;24.75;;;16.90;92.90;;;;;;5044315;28;20486;-64
2022/03/27 11:00:06;;;;;;;29.00;24.13;;;17.00;95.30;;;;;;5040172;28;20036;-65
2022/03/27 11:02:46;;;;;;;28.48;24.25;;;17.00;98.00;;;;;;5045087;28;20017;-65
2022/03/27 11:05:35;;;;;;;26.05;23.33;;;17.00;97.70;;;;;;5049348;28;20109;-64
2022/03/27 11:08:18;;;;;;;31.45;23.70;;;16.80;96.60;;;;;;5039771;28;20025;-64
2022/03/27 11:10:59;;;;;;;33.10;25.48;;;16.60;96.90;;;;;;5045047;28;20036;-62
2022/03/27 11:13:28;;;;;;;28.33;24.63;;;16.20;94.80;;;;;;5044120;28;20032;-64
2022/03/27 11:16:13;;;;;;;37.63;31.17;;;16.00;96.00;;;;;;5049291;28;20017;-63
2022/03/27 11:18:47;;;;;;;43.50;32.67;;;15.90;97.30;;;;;;5045604;28;20112;-63
2022/03/27 11:21:14;;;;;;;40.72;32.35;;;15.90;97.70;;;;;;5051089;28;20025;-63
2022/03/27 11:23:41;;;;;;;45.72;34.78;;;15.70;97.40;;;;;;5052428;28;20075;-64
2022/03/27 11:26:19;;;;;;;44.50;31.20;;;15.70;97.70;;;;;;5042069;28;20379;-63
2022/03/27 11:28:48;;;;;;;44.53;32.83;;;15.80;97.20;;;;;;5045198;28;20025;-64
2022/03/27 11:31:15;;;;;;;45.03;34.00;;;15.90;95.70;;;;;;5050653;28;20058;-63
2022/03/27 11:33:41;;;;;;;38.55;32.35;;;15.90;95.10;;;;;;5051390;28;20029;-63
2022/03/27 11:36:11;;;;;;;37.22;31.50;;;15.90;95.20;;;;;;5049310;28;20032;-64
2022/03/27 11:38:46;;;;;;;42.00;31.65;;;15.90;95.70;;;;;;5055311;28;20104;-64
2022/03/27 11:41:32;;;;;;;45.95;32.58;;;16.20;95.50;;;;;;5048173;28;20134;-63
2022/03/27 11:45:07;;;;;;;42.10;33.53;;;16.30;95.00;;;;;;5041560;28;20021;-63
2022/03/27 11:47:22;;;;;;;43.15;33.40;;;16.40;94.40;;;;;;5035389;28;20049;-64
2022/03/27 11:49:50;;;;;;;40.85;31.92;;;16.20;94.50;;;;;;5049148;28;20029;-63
2022/03/27 11:52:18;;;;;;;43.03;33.75;;;16.30;93.90;;;;;;5045048;28;20018;-64
2022/03/27 11:54:46;;;;;;;39.45;32.97;;;16.30;94.20;;;;;;5043023;28;20104;-63
2022/03/27 11:57:13;;;;;;;38.47;34.28;;;16.40;93.60;;;;;;5045103;28;20028;-63
2022/03/27 11:59:47;;;;;;;39.95;31.50;;;16.40;93.00;;;;;;5043613;28;20063;-63
2022/03/27 12:02:15;;;;;;;40.63;32.92;;;16.30;94.30;;;;;;5044069;28;20391;-65
2022/03/27 12:04:59;;;;;;;40.10;32.15;;;16.30;94.40;;;;;;5046855;28;20507;-64
2022/03/27 12:07:45;;;;;;;35.78;31.23;;;16.40;94.30;;;;;;5038554;28;20038;-62
2022/03/27 12:10:11;;;;;;;43.80;30.88;;;16.50;93.40;;;;;;5055294;28;20029;-62
2022/03/27 12:12:37;;;;;;;41.08;31.38;;;16.60;93.40;;;;;;5042283;28;20033;-63
2022/03/27 12:15:07;;;;;;;40.13;30.10;;;16.60;93.90;;;;;;5042113;28;20079;-65
2022/03/27 12:17:44;;;;;;;36.47;30.40;;;16.70;94.50;;;;;;5043041;28;20056;-63
2022/03/27 12:20:11;;;;;;;36.72;30.65;;;16.70;94.70;;;;;;5043735;28;20079;-63
2022/03/27 12:22:38;;;;;;;35.63;29.65;;;16.80;95.90;;;;;;5047629;28;20475;-63
2022/03/27 12:25:07;;;;;;;43.03;31.63;;;17.00;97.10;;;;;;5044359;28;20115;-62
2022/03/27 12:30:19;;;;;;;40.47;33.63;;;16.90;97.10;;;;;;5051382;28;20113;-64
2022/03/27 12:32:46;;;;;;;34.22;30.52;;;17.00;97.60;;;;;;5047671;28;20108;-63
2022/03/27 12:35:22;;;;;;;40.10;31.02;;;17.00;96.50;;;;;;5044808;28;20025;-64
2022/03/27 12:37:48;;;;;;;35.42;29.40;;;17.00;96.30;;;;;;5051191;28;20036;-64
2022/03/27 12:40:14;;;;;;;37.78;30.70;;;17.00;97.80;;;;;;5049645;28;20048;-65
2022/03/27 12:42:45;;;;;;;36.70;30.05;;;16.80;98.00;;;;;;5049174;28;20717;-64
2022/03/27 12:45:21;;;;;;;39.07;30.80;;;16.80;98.70;;;;;;5044796;28;20032;-65
2022/03/27 12:47:59;;;;;;;40.78;31.85;;;16.70;99.00;;;;;;5047260;28;20025;-64
2022/03/27 12:50:35;;;;;;;41.38;31.55;;;16.60;99.40;;;;;;5050152;28;20025;-64
2022/03/27 12:53:12;;;;;;;35.63;29.13;;;16.60;99.70;;;;;;5038969;28;20029;-63